Accueil
METAR-TAF:

METAR-TAF

Aéroports :

Téhéran, Iran

Aéroport international Mehrabad

latitude: 35-41N, longitude: 051-21E, altitude: 1204 m

Observation

Le bulletin a été fait il y a 35 minutes, à 02:30 UTC
Vent 4 kt de nord-est
Température 26°C
Humidité 24%
Pression 1015 hPa
Visibilité 10 km ou plus
pas de nuages en-dessous de 1500 mètres et pas de cumulonimbus.

METAR: OIII 240230Z 05004KT CAVOK 26/04 Q1015 A2998 NOSIG

Heure: 07:35 (03:05 UTC)

Prévision

Le bulletin a été fait il y a 4 heures et 5 minutes, à 23:00 UTC
Prévision valable du 24 à 00 UTC au 25 à 06 UTC
Vent 10 kt de sud-ouest
Visibilité 10 km ou plus
pas de nuages en-dessous de 1500 mètres et pas de cumulonimbus.

TAF: OIII 232300Z 2400/2506 22005MPS CAVOK

Observations et prévisions météorologiques de plus de 4000 aéroports (messages METAR et TAF).

Les stations disponibles sont représentées par des disques jaunes et rouges sur la carte.

Passer la souris dessus pour voir le nom de la station.

Cliquer dessus pour voir les observations et prévisions météorologiques.

Pour changer de carte: cliquez sur les boutons verts avec une croix noire pour zoomer, sur le bouton vert avec un tiret pour effectuer un zoom arrière, ou sur les flèches vertes pour les cartes adjacentes.


METAR-TAF: